KNEW/NEW METAR and TAF weather

Enter ICAO airport designator
Station Type Date Time Source
KNEW METAR 2021/05/12 03:53 UTC NOAA

KNEW 120353Z AUTO 13012KT 10SM CLR 24/21 A2998 RMK AO2 RAE03 SLP146 P0000 T02390211


Station Type Date Time Source
KNEW Decoded METAR 2021/05/12 03:53 UTC NOAA

NEW ORLEANS LAKEFRONT AIRPORT , LA, United States (KNEW) 30-03N 90-02W 3M
May 11, 2021 - 11:53 PM EDT / 2021.05.12 0353 UTC
Wind: from the SE (130 degrees) at 14 MPH (12 KT):0
Visibility: 10 mile(s):0
Sky conditions: clear
Precipitation last hour: A trace
Temperature: 75.0 F (23.9 C)
Dew Point: 70.0 F (21.1 C)
Relative Humidity: 84%
Pressure (altimeter): 29.98 in. Hg (1015 hPa)
ob: KNEW 120353Z AUTO 13012KT 10SM CLR 24/21 A2998 RMK AO2 RAE03 SLP146 P0000 T02390211
cycle: 4

Station Type Date Time Source
KNEW TAF 2021/05/11 20:58 UTC NOAA

TAF
AMD KNEW 111958Z 1120/1218 10011KT P6SM SCT007 BKN040
FM120800 06007KT P6SM VCTS SCT008CB OVC015
FM121000 05006KT P6SM VCTS SCT008CB OVC015
FM121700 36006KT 4SM SHRA BR SCT010 OVC015

Example: see airport list